sensor_id;sensor_type;location;lat;lon;timestamp;P1;durP1;ratioP1;P2;durP2;ratioP2
17422;SDS011;8829;47.932;7.810;2023-04-16T00:01:54;9.13;;;8.23;;
17422;SDS011;8829;47.932;7.810;2023-04-16T00:04:21;8.73;;;7.93;;
17422;SDS011;8829;47.932;7.810;2023-04-16T00:06:47;9.47;;;8.47;;
17422;SDS011;8829;47.932;7.810;2023-04-16T00:09:15;9.03;;;7.97;;
17422;SDS011;8829;47.932;7.810;2023-04-16T00:11:42;8.30;;;7.50;;
17422;SDS011;8829;47.932;7.810;2023-04-16T00:14:09;9.03;;;8.13;;
17422;SDS011;8829;47.932;7.810;2023-04-16T00:16:35;8.43;;;7.63;;
17422;SDS011;8829;47.932;7.810;2023-04-16T00:19:02;8.07;;;7.27;;
17422;SDS011;8829;47.932;7.810;2023-04-16T00:21:29;8.90;;;8.00;;
17422;SDS011;8829;47.932;7.810;2023-04-16T00:23:56;7.43;;;6.73;;
17422;SDS011;8829;47.932;7.810;2023-04-16T00:26:24;8.53;;;7.57;;
17422;SDS011;8829;47.932;7.810;2023-04-16T00:28:50;7.83;;;7.13;;
17422;SDS011;8829;47.932;7.810;2023-04-16T00:31:17;7.17;;;6.57;;
17422;SDS011;8829;47.932;7.810;2023-04-16T00:33:50;7.27;;;6.63;;
17422;SDS011;8829;47.932;7.810;2023-04-16T00:36:18;7.03;;;6.33;;
17422;SDS011;8829;47.932;7.810;2023-04-16T00:38:44;7.00;;;6.30;;
17422;SDS011;8829;47.932;7.810;2023-04-16T00:41:11;8.00;;;6.80;;
17422;SDS011;8829;47.932;7.810;2023-04-16T00:43:39;6.33;;;5.73;;
17422;SDS011;8829;47.932;7.810;2023-04-16T00:46:06;7.33;;;6.63;;
17422;SDS011;8829;47.932;7.810;2023-04-16T00:48:33;7.63;;;6.93;;
17422;SDS011;8829;47.932;7.810;2023-04-16T00:51:02;5.50;;;4.90;;
17422;SDS011;8829;47.932;7.810;2023-04-16T00:53:30;5.73;;;5.23;;
17422;SDS011;8829;47.932;7.810;2023-04-16T00:55:58;7.43;;;5.60;;
17422;SDS011;8829;47.932;7.810;2023-04-16T00:58:25;6.10;;;5.43;;
17422;SDS011;8829;47.932;7.810;2023-04-16T01:00:53;6.23;;;5.73;;
17422;SDS011;8829;47.932;7.810;2023-04-16T01:03:20;8.97;;;6.37;;
17422;SDS011;8829;47.932;7.810;2023-04-16T01:05:47;6.30;;;5.80;;
17422;SDS011;8829;47.932;7.810;2023-04-16T01:08:14;7.60;;;6.80;;
17422;SDS011;8829;47.932;7.810;2023-04-16T01:10:42;6.30;;;5.70;;
17422;SDS011;8829;47.932;7.810;2023-04-16T01:13:09;5.50;;;5.10;;
17422;SDS011;8829;47.932;7.810;2023-04-16T01:15:36;6.07;;;5.57;;
17422;SDS011;8829;47.932;7.810;2023-04-16T01:18:11;6.10;;;5.60;;
17422;SDS011;8829;47.932;7.810;2023-04-16T01:20:40;5.17;;;4.77;;
17422;SDS011;8829;47.932;7.810;2023-04-16T01:23:07;6.30;;;5.70;;
17422;SDS011;8829;47.932;7.810;2023-04-16T01:25:33;5.17;;;4.63;;
17422;SDS011;8829;47.932;7.810;2023-04-16T01:28:00;5.30;;;4.83;;
17422;SDS011;8829;47.932;7.810;2023-04-16T01:30:27;5.60;;;5.10;;
17422;SDS011;8829;47.932;7.810;2023-04-16T01:32:54;5.50;;;5.00;;
17422;SDS011;8829;47.932;7.810;2023-04-16T01:35:21;6.03;;;5.50;;
17422;SDS011;8829;47.932;7.810;2023-04-16T01:37:50;5.13;;;4.70;;
17422;SDS011;8829;47.932;7.810;2023-04-16T01:40:16;5.70;;;5.30;;
17422;SDS011;8829;47.932;7.810;2023-04-16T01:42:43;5.10;;;4.63;;
17422;SDS011;8829;47.932;7.810;2023-04-16T01:45:10;4.43;;;4.13;;
17422;SDS011;8829;47.932;7.810;2023-04-16T01:47:37;5.70;;;5.10;;
17422;SDS011;8829;47.932;7.810;2023-04-16T01:50:04;5.07;;;4.67;;
17422;SDS011;8829;47.932;7.810;2023-04-16T01:52:32;4.97;;;4.57;;
17422;SDS011;8829;47.932;7.810;2023-04-16T01:55:00;5.70;;;5.27;;
17422;SDS011;8829;47.932;7.810;2023-04-16T01:57:27;5.53;;;5.10;;
17422;SDS011;8829;47.932;7.810;2023-04-16T01:59:54;5.10;;;4.70;;
17422;SDS011;8829;47.932;7.810;2023-04-16T02:02:21;4.90;;;4.50;;
17422;SDS011;8829;47.932;7.810;2023-04-16T02:04:51;4.80;;;4.40;;
17422;SDS011;8829;47.932;7.810;2023-04-16T02:07:18;5.00;;;4.60;;
17422;SDS011;8829;47.932;7.810;2023-04-16T02:09:45;4.57;;;4.27;;
17422;SDS011;8829;47.932;7.810;2023-04-16T02:12:13;4.90;;;4.50;;
17422;SDS011;8829;47.932;7.810;2023-04-16T02:14:40;4.33;;;4.03;;
17422;SDS011;8829;47.932;7.810;2023-04-16T02:17:06;5.23;;;4.80;;
17422;SDS011;8829;47.932;7.810;2023-04-16T02:19:33;5.53;;;4.97;;
17422;SDS011;8829;47.932;7.810;2023-04-16T02:22:00;4.90;;;4.50;;
17422;SDS011;8829;47.932;7.810;2023-04-16T02:24:27;5.03;;;4.63;;
17422;SDS011;8829;47.932;7.810;2023-04-16T02:26:54;5.50;;;5.00;;
17422;SDS011;8829;47.932;7.810;2023-04-16T02:29:22;4.57;;;4.03;;
17422;SDS011;8829;47.932;7.810;2023-04-16T02:31:49;4.90;;;4.50;;
17422;SDS011;8829;47.932;7.810;2023-04-16T02:34:15;4.80;;;4.40;;
17422;SDS011;8829;47.932;7.810;2023-04-16T02:36:42;5.00;;;4.60;;
17422;SDS011;8829;47.932;7.810;2023-04-16T02:39:09;5.57;;;5.07;;
17422;SDS011;8829;47.932;7.810;2023-04-16T02:41:36;6.20;;;5.13;;
17422;SDS011;8829;47.932;7.810;2023-04-16T02:44:03;5.37;;;4.70;;
17422;SDS011;8829;47.932;7.810;2023-04-16T02:46:31;5.60;;;5.10;;
17422;SDS011;8829;47.932;7.810;2023-04-16T02:48:58;5.80;;;5.30;;
17422;SDS011;8829;47.932;7.810;2023-04-16T02:51:24;5.80;;;4.70;;
17422;SDS011;8829;47.932;7.810;2023-04-16T02:53:51;5.97;;;5.47;;
17422;SDS011;8829;47.932;7.810;2023-04-16T02:56:18;5.67;;;5.17;;
17422;SDS011;8829;47.932;7.810;2023-04-16T02:58:45;5.93;;;5.43;;
17422;SDS011;8829;47.932;7.810;2023-04-16T03:01:11;6.67;;;6.07;;
17422;SDS011;8829;47.932;7.810;2023-04-16T03:03:39;5.87;;;5.37;;
17422;SDS011;8829;47.932;7.810;2023-04-16T03:06:06;7.13;;;5.20;;
17422;SDS011;8829;47.932;7.810;2023-04-16T03:08:33;7.40;;;5.57;;
17422;SDS011;8829;47.932;7.810;2023-04-16T03:10:59;6.00;;;5.50;;
17422;SDS011;8829;47.932;7.810;2023-04-16T03:13:26;5.97;;;5.37;;
17422;SDS011;8829;47.932;7.810;2023-04-16T03:15:53;8.50;;;6.40;;
17422;SDS011;8829;47.932;7.810;2023-04-16T03:18:19;6.97;;;6.27;;
17422;SDS011;8829;47.932;7.810;2023-04-16T03:20:51;7.13;;;6.53;;
17422;SDS011;8829;47.932;7.810;2023-04-16T03:23:18;6.87;;;6.27;;
17422;SDS011;8829;47.932;7.810;2023-04-16T03:25:44;6.67;;;6.07;;
17422;SDS011;8829;47.932;7.810;2023-04-16T03:28:12;6.77;;;6.17;;
17422;SDS011;8829;47.932;7.810;2023-04-16T03:30:38;6.87;;;6.27;;
17422;SDS011;8829;47.932;7.810;2023-04-16T03:33:05;7.10;;;6.40;;
17422;SDS011;8829;47.932;7.810;2023-04-16T03:35:32;6.83;;;6.20;;
17422;SDS011;8829;47.932;7.810;2023-04-16T03:38:00;7.00;;;6.30;;
17422;SDS011;8829;47.932;7.810;2023-04-16T03:40:26;6.93;;;6.33;;
17422;SDS011;8829;47.932;7.810;2023-04-16T03:42:53;6.83;;;6.23;;
17422;SDS011;8829;47.932;7.810;2023-04-16T03:45:20;6.90;;;6.20;;
17422;SDS011;8829;47.932;7.810;2023-04-16T03:47:46;7.80;;;6.33;;
17422;SDS011;8829;47.932;7.810;2023-04-16T03:50:16;6.70;;;6.10;;
17422;SDS011;8829;47.932;7.810;2023-04-16T03:52:43;7.07;;;6.47;;
17422;SDS011;8829;47.932;7.810;2023-04-16T03:55:12;6.53;;;6.03;;
17422;SDS011;8829;47.932;7.810;2023-04-16T03:57:39;12.50;;;6.93;;
17422;SDS011;8829;47.932;7.810;2023-04-16T04:00:06;7.73;;;7.00;;
17422;SDS011;8829;47.932;7.810;2023-04-16T04:02:33;7.93;;;6.70;;
17422;SDS011;8829;47.932;7.810;2023-04-16T04:05:00;7.30;;;6.53;;
17422;SDS011;8829;47.932;7.810;2023-04-16T04:07:27;7.80;;;7.10;;
17422;SDS011;8829;47.932;7.810;2023-04-16T04:09:53;8.43;;;6.67;;
17422;SDS011;8829;47.932;7.810;2023-04-16T04:12:21;6.83;;;6.23;;
17422;SDS011;8829;47.932;7.810;2023-04-16T04:14:48;7.73;;;6.97;;
17422;SDS011;8829;47.932;7.810;2023-04-16T04:17:15;7.03;;;6.47;;
17422;SDS011;8829;47.932;7.810;2023-04-16T04:19:42;6.83;;;6.23;;
17422;SDS011;8829;47.932;7.810;2023-04-16T04:22:08;7.27;;;6.57;;
17422;SDS011;8829;47.932;7.810;2023-04-16T04:24:35;7.97;;;7.17;;
17422;SDS011;8829;47.932;7.810;2023-04-16T04:27:02;6.87;;;6.27;;
17422;SDS011;8829;47.932;7.810;2023-04-16T04:29:30;7.60;;;6.80;;
17422;SDS011;8829;47.932;7.810;2023-04-16T04:31:57;8.43;;;6.67;;
17422;SDS011;8829;47.932;7.810;2023-04-16T04:34:23;7.50;;;6.70;;
17422;SDS011;8829;47.932;7.810;2023-04-16T04:36:50;6.80;;;6.20;;
17422;SDS011;8829;47.932;7.810;2023-04-16T04:39:17;7.53;;;6.87;;
17422;SDS011;8829;47.932;7.810;2023-04-16T04:41:45;7.97;;;6.87;;
17422;SDS011;8829;47.932;7.810;2023-04-16T04:44:12;7.03;;;6.33;;
17422;SDS011;8829;47.932;7.810;2023-04-16T04:46:40;6.90;;;6.30;;
17422;SDS011;8829;47.932;7.810;2023-04-16T04:49:07;8.27;;;7.57;;
17422;SDS011;8829;47.932;7.810;2023-04-16T04:51:33;7.93;;;7.10;;
17422;SDS011;8829;47.932;7.810;2023-04-16T04:54:01;7.37;;;6.40;;
17422;SDS011;8829;47.932;7.810;2023-04-16T04:56:28;7.17;;;6.53;;
17422;SDS011;8829;47.932;7.810;2023-04-16T04:58:55;8.10;;;7.30;;
17422;SDS011;8829;47.932;7.810;2023-04-16T05:01:22;10.97;;;7.77;;
17422;SDS011;8829;47.932;7.810;2023-04-16T05:03:50;8.00;;;7.20;;
17422;SDS011;8829;47.932;7.810;2023-04-16T05:06:17;9.10;;;8.17;;
17422;SDS011;8829;47.932;7.810;2023-04-16T05:08:43;7.20;;;6.50;;
17422;SDS011;8829;47.932;7.810;2023-04-16T05:11:10;8.20;;;7.40;;
17422;SDS011;8829;47.932;7.810;2023-04-16T05:13:37;7.40;;;6.70;;
17422;SDS011;8829;47.932;7.810;2023-04-16T05:16:03;7.83;;;7.13;;
17422;SDS011;8829;47.932;7.810;2023-04-16T05:18:31;8.43;;;7.63;;
17422;SDS011;8829;47.932;7.810;2023-04-16T05:20:59;7.10;;;6.40;;
17422;SDS011;8829;47.932;7.810;2023-04-16T05:23:25;7.43;;;6.70;;
17422;SDS011;8829;47.932;7.810;2023-04-16T05:25:52;8.07;;;7.27;;
17422;SDS011;8829;47.932;7.810;2023-04-16T05:28:19;7.50;;;6.80;;
17422;SDS011;8829;47.932;7.810;2023-04-16T05:30:45;8.17;;;7.17;;
17422;SDS011;8829;47.932;7.810;2023-04-16T05:33:12;8.20;;;7.40;;
17422;SDS011;8829;47.932;7.810;2023-04-16T05:35:38;10.67;;;7.43;;
17422;SDS011;8829;47.932;7.810;2023-04-16T05:38:06;8.73;;;7.60;;
17422;SDS011;8829;47.932;7.810;2023-04-16T05:40:34;7.77;;;7.07;;
17422;SDS011;8829;47.932;7.810;2023-04-16T05:43:01;11.33;;;7.83;;
17422;SDS011;8829;47.932;7.810;2023-04-16T05:45:27;7.83;;;7.13;;
17422;SDS011;8829;47.932;7.810;2023-04-16T05:47:55;7.07;;;6.37;;
17422;SDS011;8829;47.932;7.810;2023-04-16T05:50:21;8.43;;;6.93;;
17422;SDS011;8829;47.932;7.810;2023-04-16T05:52:48;8.00;;;7.20;;
17422;SDS011;8829;47.932;7.810;2023-04-16T05:55:16;7.70;;;7.00;;
17422;SDS011;8829;47.932;7.810;2023-04-16T05:57:43;7.20;;;6.57;;
17422;SDS011;8829;47.932;7.810;2023-04-16T06:00:10;7.40;;;6.60;;
17422;SDS011;8829;47.932;7.810;2023-04-16T06:02:37;7.10;;;6.50;;
17422;SDS011;8829;47.932;7.810;2023-04-16T06:05:04;8.27;;;7.30;;
17422;SDS011;8829;47.932;7.810;2023-04-16T06:07:31;8.50;;;7.37;;
17422;SDS011;8829;47.932;7.810;2023-04-16T06:09:57;7.40;;;6.70;;
17422;SDS011;8829;47.932;7.810;2023-04-16T06:12:26;9.47;;;7.33;;
17422;SDS011;8829;47.932;7.810;2023-04-16T06:14:52;8.97;;;6.13;;
17422;SDS011;8829;47.932;7.810;2023-04-16T06:17:20;6.97;;;6.23;;
17422;SDS011;8829;47.932;7.810;2023-04-16T06:19:47;7.37;;;6.67;;
17422;SDS011;8829;47.932;7.810;2023-04-16T06:22:13;8.67;;;7.30;;
17422;SDS011;8829;47.932;7.810;2023-04-16T06:24:40;8.30;;;7.43;;
17422;SDS011;8829;47.932;7.810;2023-04-16T06:27:07;7.97;;;7.27;;
17422;SDS011;8829;47.932;7.810;2023-04-16T06:29:35;8.10;;;7.40;;
17422;SDS011;8829;47.932;7.810;2023-04-16T06:32:02;8.53;;;7.73;;
17422;SDS011;8829;47.932;7.810;2023-04-16T06:34:29;8.50;;;7.70;;
17422;SDS011;8829;47.932;7.810;2023-04-16T06:36:56;9.13;;;8.27;;
17422;SDS011;8829;47.932;7.810;2023-04-16T06:39:23;8.47;;;7.57;;
17422;SDS011;8829;47.932;7.810;2023-04-16T06:41:50;8.53;;;7.73;;
17422;SDS011;8829;47.932;7.810;2023-04-16T06:44:16;10.17;;;8.57;;
17422;SDS011;8829;47.932;7.810;2023-04-16T06:46:44;10.90;;;9.60;;
17422;SDS011;8829;47.932;7.810;2023-04-16T06:49:11;10.20;;;9.20;;
17422;SDS011;8829;47.932;7.810;2023-04-16T06:51:37;10.70;;;9.60;;
17422;SDS011;8829;47.932;7.810;2023-04-16T06:54:04;9.30;;;8.43;;
17422;SDS011;8829;47.932;7.810;2023-04-16T06:56:31;10.87;;;9.63;;
17422;SDS011;8829;47.932;7.810;2023-04-16T06:58:58;9.90;;;8.97;;
17422;SDS011;8829;47.932;7.810;2023-04-16T07:01:25;10.03;;;9.03;;
17422;SDS011;8829;47.932;7.810;2023-04-16T07:03:53;12.07;;;9.13;;
17422;SDS011;8829;47.932;7.810;2023-04-16T07:06:20;10.17;;;9.17;;
17422;SDS011;8829;47.932;7.810;2023-04-16T07:08:46;10.07;;;8.90;;
17422;SDS011;8829;47.932;7.810;2023-04-16T07:11:13;9.83;;;8.73;;
17422;SDS011;8829;47.932;7.810;2023-04-16T07:13:40;10.23;;;9.23;;
17422;SDS011;8829;47.932;7.810;2023-04-16T07:16:07;9.53;;;8.60;;
17422;SDS011;8829;47.932;7.810;2023-04-16T07:18:33;9.27;;;8.37;;
17422;SDS011;8829;47.932;7.810;2023-04-16T07:21:02;11.93;;;10.67;;
17422;SDS011;8829;47.932;7.810;2023-04-16T07:23:29;10.60;;;9.50;;
17422;SDS011;8829;47.932;7.810;2023-04-16T07:25:56;10.47;;;9.40;;
17422;SDS011;8829;47.932;7.810;2023-04-16T07:28:22;9.60;;;8.63;;
17422;SDS011;8829;47.932;7.810;2023-04-16T07:30:49;12.47;;;10.53;;
17422;SDS011;8829;47.932;7.810;2023-04-16T07:33:16;9.37;;;8.47;;
17422;SDS011;8829;47.932;7.810;2023-04-16T07:35:43;10.67;;;8.90;;
17422;SDS011;8829;47.932;7.810;2023-04-16T07:38:11;11.33;;;9.10;;
17422;SDS011;8829;47.932;7.810;2023-04-16T07:40:38;12.77;;;10.70;;
17422;SDS011;8829;47.932;7.810;2023-04-16T07:43:05;12.57;;;10.73;;
17422;SDS011;8829;47.932;7.810;2023-04-16T07:45:32;10.40;;;9.23;;
17422;SDS011;8829;47.932;7.810;2023-04-16T07:47:59;23.03;;;14.93;;
17422;SDS011;8829;47.932;7.810;2023-04-16T07:50:25;17.87;;;12.07;;
17422;SDS011;8829;47.932;7.810;2023-04-16T07:52:52;16.67;;;11.77;;
17422;SDS011;8829;47.932;7.810;2023-04-16T07:55:21;12.47;;;9.47;;
17422;SDS011;8829;47.932;7.810;2023-04-16T07:57:47;11.03;;;9.53;;
17422;SDS011;8829;47.932;7.810;2023-04-16T08:00:14;10.10;;;8.87;;
17422;SDS011;8829;47.932;7.810;2023-04-16T08:02:41;10.97;;;8.70;;
17422;SDS011;8829;47.932;7.810;2023-04-16T08:05:08;8.83;;;7.93;;
17422;SDS011;8829;47.932;7.810;2023-04-16T08:07:36;8.60;;;7.70;;
17422;SDS011;8829;47.932;7.810;2023-04-16T08:10:03;17.60;;;13.63;;
17422;SDS011;8829;47.932;7.810;2023-04-16T08:12:32;9.43;;;8.43;;
17422;SDS011;8829;47.932;7.810;2023-04-16T08:15:00;9.70;;;8.67;;
17422;SDS011;8829;47.932;7.810;2023-04-16T08:17:26;8.20;;;7.40;;
17422;SDS011;8829;47.932;7.810;2023-04-16T08:19:54;11.87;;;8.53;;
17422;SDS011;8829;47.932;7.810;2023-04-16T08:22:20;8.73;;;7.83;;
17422;SDS011;8829;47.932;7.810;2023-04-16T08:24:47;8.90;;;7.40;;
17422;SDS011;8829;47.932;7.810;2023-04-16T08:27:14;8.50;;;7.63;;
17422;SDS011;8829;47.932;7.810;2023-04-16T08:29:42;7.93;;;7.13;;
17422;SDS011;8829;47.932;7.810;2023-04-16T08:32:09;8.23;;;7.50;;
17422;SDS011;8829;47.932;7.810;2023-04-16T08:34:36;9.20;;;7.40;;
17422;SDS011;8829;47.932;7.810;2023-04-16T08:37:03;8.00;;;6.80;;
17422;SDS011;8829;47.932;7.810;2023-04-16T08:39:29;7.93;;;7.23;;
17422;SDS011;8829;47.932;7.810;2023-04-16T08:41:56;9.07;;;7.43;;
17422;SDS011;8829;47.932;7.810;2023-04-16T08:44:24;8.33;;;7.53;;
17422;SDS011;8829;47.932;7.810;2023-04-16T08:46:54;9.27;;;8.37;;
17422;SDS011;8829;47.932;7.810;2023-04-16T08:49:23;11.20;;;7.90;;
17422;SDS011;8829;47.932;7.810;2023-04-16T08:51:51;8.43;;;7.60;;
17422;SDS011;8829;47.932;7.810;2023-04-16T08:54:33;9.50;;;8.57;;
17422;SDS011;8829;47.932;7.810;2023-04-16T08:57:04;8.70;;;7.80;;
17422;SDS011;8829;47.932;7.810;2023-04-16T08:59:32;9.87;;;7.67;;
17422;SDS011;8829;47.932;7.810;2023-04-16T09:02:00;10.20;;;8.47;;
17422;SDS011;8829;47.932;7.810;2023-04-16T09:04:27;10.37;;;8.30;;
17422;SDS011;8829;47.932;7.810;2023-04-16T09:06:54;9.07;;;8.07;;
17422;SDS011;8829;47.932;7.810;2023-04-16T09:09:23;11.00;;;8.73;;
17422;SDS011;8829;47.932;7.810;2023-04-16T09:11:51;10.47;;;8.93;;
17422;SDS011;8829;47.932;7.810;2023-04-16T09:14:19;10.27;;;9.17;;
17422;SDS011;8829;47.932;7.810;2023-04-16T09:16:46;12.83;;;9.73;;
17422;SDS011;8829;47.932;7.810;2023-04-16T09:19:15;10.47;;;8.43;;
17422;SDS011;8829;47.932;7.810;2023-04-16T09:21:42;11.27;;;8.93;;
17422;SDS011;8829;47.932;7.810;2023-04-16T09:24:11;10.50;;;9.07;;
17422;SDS011;8829;47.932;7.810;2023-04-16T09:26:39;9.73;;;8.57;;
17422;SDS011;8829;47.932;7.810;2023-04-16T09:29:07;8.80;;;7.90;;
17422;SDS011;8829;47.932;7.810;2023-04-16T09:31:33;10.87;;;8.50;;
17422;SDS011;8829;47.932;7.810;2023-04-16T09:34:01;10.00;;;8.77;;
17422;SDS011;8829;47.932;7.810;2023-04-16T09:36:33;9.97;;;8.80;;
17422;SDS011;8829;47.932;7.810;2023-04-16T09:39:01;9.67;;;8.07;;
17422;SDS011;8829;47.932;7.810;2023-04-16T09:41:29;9.83;;;8.63;;
17422;SDS011;8829;47.932;7.810;2023-04-16T09:43:57;10.73;;;8.50;;
17422;SDS011;8829;47.932;7.810;2023-04-16T09:46:28;8.50;;;7.60;;
17422;SDS011;8829;47.932;7.810;2023-04-16T09:48:56;7.47;;;6.67;;
17422;SDS011;8829;47.932;7.810;2023-04-16T09:51:23;6.07;;;5.43;;
17422;SDS011;8829;47.932;7.810;2023-04-16T09:53:52;6.13;;;5.53;;
17422;SDS011;8829;47.932;7.810;2023-04-16T09:56:22;6.23;;;5.63;;
17422;SDS011;8829;47.932;7.810;2023-04-16T09:58:55;7.53;;;6.20;;
17422;SDS011;8829;47.932;7.810;2023-04-16T10:01:23;7.80;;;6.90;;
17422;SDS011;8829;47.932;7.810;2023-04-16T10:03:52;7.67;;;6.10;;
17422;SDS011;8829;47.932;7.810;2023-04-16T10:06:19;7.97;;;6.47;;
17422;SDS011;8829;47.932;7.810;2023-04-16T10:08:47;7.27;;;6.57;;
17422;SDS011;8829;47.932;7.810;2023-04-16T10:11:15;9.80;;;8.17;;
17422;SDS011;8829;47.932;7.810;2023-04-16T10:13:43;13.93;;;9.07;;
17422;SDS011;8829;47.932;7.810;2023-04-16T10:16:10;9.80;;;7.90;;
17422;SDS011;8829;47.932;7.810;2023-04-16T10:18:39;13.03;;;9.27;;
17422;SDS011;8829;47.932;7.810;2023-04-16T10:21:06;10.40;;;8.70;;
17422;SDS011;8829;47.932;7.810;2023-04-16T10:23:35;10.77;;;7.83;;
17422;SDS011;8829;47.932;7.810;2023-04-16T10:26:03;9.73;;;8.10;;
17422;SDS011;8829;47.932;7.810;2023-04-16T10:28:32;9.00;;;8.10;;
17422;SDS011;8829;47.932;7.810;2023-04-16T10:31:00;8.73;;;7.83;;
17422;SDS011;8829;47.932;7.810;2023-04-16T10:33:29;12.50;;;10.10;;
17422;SDS011;8829;47.932;7.810;2023-04-16T10:36:07;9.47;;;8.37;;
17422;SDS011;8829;47.932;7.810;2023-04-16T10:38:37;10.67;;;8.20;;
17422;SDS011;8829;47.932;7.810;2023-04-16T10:41:04;8.87;;;7.53;;
17422;SDS011;8829;47.932;7.810;2023-04-16T10:43:37;10.67;;;8.17;;
17422;SDS011;8829;47.932;7.810;2023-04-16T10:46:18;9.77;;;8.37;;
17422;SDS011;8829;47.932;7.810;2023-04-16T10:48:47;8.77;;;7.80;;
17422;SDS011;8829;47.932;7.810;2023-04-16T10:51:26;11.67;;;8.77;;
17422;SDS011;8829;47.932;7.810;2023-04-16T10:53:55;10.90;;;8.83;;
17422;SDS011;8829;47.932;7.810;2023-04-16T10:56:28;13.73;;;9.17;;
17422;SDS011;8829;47.932;7.810;2023-04-16T10:58:59;12.63;;;8.97;;
17422;SDS011;8829;47.932;7.810;2023-04-16T11:01:29;13.07;;;9.50;;
17422;SDS011;8829;47.932;7.810;2023-04-16T11:03:58;14.23;;;9.77;;
17422;SDS011;8829;47.932;7.810;2023-04-16T11:06:28;11.20;;;9.37;;
17422;SDS011;8829;47.932;7.810;2023-04-16T11:08:58;12.03;;;9.53;;
17422;SDS011;8829;47.932;7.810;2023-04-16T11:11:24;14.67;;;10.77;;
17422;SDS011;8829;47.932;7.810;2023-04-16T11:13:55;11.30;;;8.47;;
17422;SDS011;8829;47.932;7.810;2023-04-16T11:16:23;10.93;;;8.70;;
17422;SDS011;8829;47.932;7.810;2023-04-16T11:18:53;10.87;;;8.40;;
17422;SDS011;8829;47.932;7.810;2023-04-16T11:21:20;13.57;;;9.67;;
17422;SDS011;8829;47.932;7.810;2023-04-16T11:23:48;12.47;;;8.83;;
17422;SDS011;8829;47.932;7.810;2023-04-16T11:26:21;11.67;;;9.63;;
17422;SDS011;8829;47.932;7.810;2023-04-16T11:28:49;11.00;;;8.43;;
17422;SDS011;8829;47.932;7.810;2023-04-16T11:31:16;9.70;;;8.60;;
17422;SDS011;8829;47.932;7.810;2023-04-16T11:33:44;10.13;;;8.50;;
17422;SDS011;8829;47.932;7.810;2023-04-16T11:36:11;10.13;;;8.37;;
17422;SDS011;8829;47.932;7.810;2023-04-16T11:38:38;12.87;;;8.67;;
17422;SDS011;8829;47.932;7.810;2023-04-16T11:41:06;13.17;;;9.10;;
17422;SDS011;8829;47.932;7.810;2023-04-16T11:43:33;10.47;;;8.80;;
17422;SDS011;8829;47.932;7.810;2023-04-16T11:46:01;15.13;;;9.87;;
17422;SDS011;8829;47.932;7.810;2023-04-16T11:51:15;12.03;;;8.83;;
17422;SDS011;8829;47.932;7.810;2023-04-16T11:53:46;12.47;;;9.40;;
17422;SDS011;8829;47.932;7.810;2023-04-16T11:56:13;11.13;;;8.27;;
17422;SDS011;8829;47.932;7.810;2023-04-16T11:58:41;12.10;;;9.20;;
17422;SDS011;8829;47.932;7.810;2023-04-16T12:01:08;11.30;;;8.57;;
17422;SDS011;8829;47.932;7.810;2023-04-16T12:03:39;12.00;;;8.93;;
17422;SDS011;8829;47.932;7.810;2023-04-16T12:06:11;11.60;;;8.60;;
17422;SDS011;8829;47.932;7.810;2023-04-16T12:08:37;11.73;;;8.60;;
17422;SDS011;8829;47.932;7.810;2023-04-16T12:11:04;9.73;;;8.33;;
17422;SDS011;8829;47.932;7.810;2023-04-16T12:13:31;14.23;;;9.60;;
17422;SDS011;8829;47.932;7.810;2023-04-16T12:16:06;12.10;;;8.90;;
17422;SDS011;8829;47.932;7.810;2023-04-16T12:18:57;12.87;;;9.50;;
17422;SDS011;8829;47.932;7.810;2023-04-16T12:21:26;12.10;;;9.53;;
17422;SDS011;8829;47.932;7.810;2023-04-16T12:24:01;12.30;;;9.97;;
17422;SDS011;8829;47.932;7.810;2023-04-16T12:26:34;14.00;;;10.57;;
17422;SDS011;8829;47.932;7.810;2023-04-16T12:29:12;10.87;;;8.63;;
17422;SDS011;8829;47.932;7.810;2023-04-16T12:31:43;13.67;;;9.60;;
17422;SDS011;8829;47.932;7.810;2023-04-16T12:34:10;12.47;;;9.30;;
17422;SDS011;8829;47.932;7.810;2023-04-16T12:36:39;10.20;;;8.73;;
17422;SDS011;8829;47.932;7.810;2023-04-16T12:39:06;10.17;;;8.83;;
17422;SDS011;8829;47.932;7.810;2023-04-16T12:41:35;14.17;;;12.23;;
17422;SDS011;8829;47.932;7.810;2023-04-16T12:44:03;11.83;;;9.73;;
17422;SDS011;8829;47.932;7.810;2023-04-16T12:46:32;12.33;;;9.83;;
17422;SDS011;8829;47.932;7.810;2023-04-16T12:49:00;12.33;;;10.27;;
17422;SDS011;8829;47.932;7.810;2023-04-16T12:51:26;12.53;;;10.60;;
17422;SDS011;8829;47.932;7.810;2023-04-16T12:53:54;14.80;;;10.77;;
17422;SDS011;8829;47.932;7.810;2023-04-16T12:56:21;12.27;;;9.80;;
17422;SDS011;8829;47.932;7.810;2023-04-16T12:58:48;12.07;;;9.47;;
17422;SDS011;8829;47.932;7.810;2023-04-16T13:01:16;16.07;;;10.17;;
17422;SDS011;8829;47.932;7.810;2023-04-16T13:03:43;13.03;;;9.63;;
17422;SDS011;8829;47.932;7.810;2023-04-16T13:06:10;10.37;;;8.67;;
17422;SDS011;8829;47.932;7.810;2023-04-16T13:08:37;11.47;;;10.03;;
17422;SDS011;8829;47.932;7.810;2023-04-16T13:11:05;11.20;;;9.90;;
17422;SDS011;8829;47.932;7.810;2023-04-16T13:13:32;12.80;;;8.83;;
17422;SDS011;8829;47.932;7.810;2023-04-16T13:15:59;11.93;;;8.77;;
17422;SDS011;8829;47.932;7.810;2023-04-16T13:18:28;13.13;;;10.10;;
17422;SDS011;8829;47.932;7.810;2023-04-16T13:20:54;12.23;;;9.47;;
17422;SDS011;8829;47.932;7.810;2023-04-16T13:23:21;13.23;;;9.37;;
17422;SDS011;8829;47.932;7.810;2023-04-16T13:25:48;9.93;;;8.80;;
17422;SDS011;8829;47.932;7.810;2023-04-16T13:28:16;11.40;;;9.77;;
17422;SDS011;8829;47.932;7.810;2023-04-16T13:30:43;10.53;;;9.20;;
17422;SDS011;8829;47.932;7.810;2023-04-16T13:33:11;10.97;;;8.53;;
17422;SDS011;8829;47.932;7.810;2023-04-16T13:35:37;12.10;;;9.73;;
17422;SDS011;8829;47.932;7.810;2023-04-16T13:38:04;11.20;;;9.40;;
17422;SDS011;8829;47.932;7.810;2023-04-16T13:40:31;13.63;;;9.87;;
17422;SDS011;8829;47.932;7.810;2023-04-16T13:42:57;13.33;;;10.47;;
17422;SDS011;8829;47.932;7.810;2023-04-16T13:45:25;16.13;;;10.27;;
17422;SDS011;8829;47.932;7.810;2023-04-16T13:47:53;13.53;;;9.90;;
17422;SDS011;8829;47.932;7.810;2023-04-16T13:50:20;10.33;;;9.23;;
17422;SDS011;8829;47.932;7.810;2023-04-16T13:52:46;12.37;;;10.03;;
17422;SDS011;8829;47.932;7.810;2023-04-16T13:55:13;12.80;;;9.47;;
17422;SDS011;8829;47.932;7.810;2023-04-16T13:57:43;9.87;;;8.23;;
17422;SDS011;8829;47.932;7.810;2023-04-16T14:00:10;11.40;;;8.20;;
17422;SDS011;8829;47.932;7.810;2023-04-16T14:02:40;10.47;;;8.13;;
17422;SDS011;8829;47.932;7.810;2023-04-16T14:05:09;8.33;;;7.27;;
17422;SDS011;8829;47.932;7.810;2023-04-16T14:07:36;9.80;;;7.97;;
17422;SDS011;8829;47.932;7.810;2023-04-16T14:10:03;8.77;;;6.93;;
17422;SDS011;8829;47.932;7.810;2023-04-16T14:12:30;10.23;;;8.27;;
17422;SDS011;8829;47.932;7.810;2023-04-16T14:14:57;8.87;;;7.57;;
17422;SDS011;8829;47.932;7.810;2023-04-16T14:17:23;10.00;;;7.97;;
17422;SDS011;8829;47.932;7.810;2023-04-16T14:19:51;9.13;;;7.57;;
17422;SDS011;8829;47.932;7.810;2023-04-16T14:22:18;9.13;;;7.63;;
17422;SDS011;8829;47.932;7.810;2023-04-16T14:24:45;9.90;;;8.40;;
17422;SDS011;8829;47.932;7.810;2023-04-16T14:27:11;9.27;;;8.10;;
17422;SDS011;8829;47.932;7.810;2023-04-16T14:29:38;9.53;;;8.20;;
17422;SDS011;8829;47.932;7.810;2023-04-16T14:32:05;10.90;;;8.27;;
17422;SDS011;8829;47.932;7.810;2023-04-16T14:34:32;13.30;;;8.83;;
17422;SDS011;8829;47.932;7.810;2023-04-16T14:37:00;8.67;;;7.50;;
17422;SDS011;8829;47.932;7.810;2023-04-16T14:39:28;10.00;;;8.03;;
17422;SDS011;8829;47.932;7.810;2023-04-16T14:41:55;10.80;;;8.50;;
17422;SDS011;8829;47.932;7.810;2023-04-16T14:44:21;12.97;;;9.23;;
17422;SDS011;8829;47.932;7.810;2023-04-16T14:46:48;8.60;;;7.47;;
17422;SDS011;8829;47.932;7.810;2023-04-16T14:49:15;10.30;;;9.20;;
17422;SDS011;8829;47.932;7.810;2023-04-16T14:51:41;9.17;;;7.90;;
17422;SDS011;8829;47.932;7.810;2023-04-16T14:54:12;10.97;;;9.37;;
17422;SDS011;8829;47.932;7.810;2023-04-16T14:56:39;9.70;;;8.70;;
17422;SDS011;8829;47.932;7.810;2023-04-16T14:59:06;11.00;;;7.97;;
17422;SDS011;8829;47.932;7.810;2023-04-16T15:01:32;11.43;;;8.67;;